sensor_id;sensor_type;location;lat;lon;timestamp;P1;durP1;ratioP1;P2;durP2;ratioP2
35074;SDS011;21260;34.984;32.490;2023-04-30T00:00:25;4.88;;;3.15;;
35074;SDS011;21260;34.984;32.490;2023-04-30T00:02:51;6.60;;;3.20;;
35074;SDS011;21260;34.984;32.490;2023-04-30T00:05:17;8.10;;;3.45;;
35074;SDS011;21260;34.984;32.490;2023-04-30T00:07:46;8.02;;;3.47;;
35074;SDS011;21260;34.984;32.490;2023-04-30T00:10:12;4.83;;;3.10;;
35074;SDS011;21260;34.984;32.490;2023-04-30T00:12:38;4.88;;;2.83;;
35074;SDS011;21260;34.984;32.490;2023-04-30T00:15:05;6.32;;;3.38;;
35074;SDS011;21260;34.984;32.490;2023-04-30T00:17:31;5.55;;;2.95;;
35074;SDS011;21260;34.984;32.490;2023-04-30T00:19:58;6.15;;;3.10;;
35074;SDS011;21260;34.984;32.490;2023-04-30T00:22:24;6.47;;;3.33;;
35074;SDS011;21260;34.984;32.490;2023-04-30T00:24:50;5.35;;;3.10;;
35074;SDS011;21260;34.984;32.490;2023-04-30T00:27:16;6.47;;;3.00;;
35074;SDS011;21260;34.984;32.490;2023-04-30T00:29:42;5.60;;;3.10;;
35074;SDS011;21260;34.984;32.490;2023-04-30T00:32:08;7.40;;;3.40;;
35074;SDS011;21260;34.984;32.490;2023-04-30T00:34:35;6.07;;;3.53;;
35074;SDS011;21260;34.984;32.490;2023-04-30T00:37:01;7.13;;;3.13;;
35074;SDS011;21260;34.984;32.490;2023-04-30T00:39:27;6.32;;;3.35;;
35074;SDS011;21260;34.984;32.490;2023-04-30T00:41:53;8.63;;;3.50;;
35074;SDS011;21260;34.984;32.490;2023-04-30T00:44:20;7.07;;;3.23;;
35074;SDS011;21260;34.984;32.490;2023-04-30T00:46:46;6.68;;;3.58;;
35074;SDS011;21260;34.984;32.490;2023-04-30T00:49:12;5.85;;;3.40;;
35074;SDS011;21260;34.984;32.490;2023-04-30T00:51:39;6.40;;;3.27;;
35074;SDS011;21260;34.984;32.490;2023-04-30T00:54:08;8.03;;;3.63;;
35074;SDS011;21260;34.984;32.490;2023-04-30T00:56:35;5.50;;;3.30;;
35074;SDS011;21260;34.984;32.490;2023-04-30T00:59:01;7.75;;;3.30;;
35074;SDS011;21260;34.984;32.490;2023-04-30T01:01:28;6.55;;;3.67;;
35074;SDS011;21260;34.984;32.490;2023-04-30T01:03:55;7.10;;;3.50;;
35074;SDS011;21260;34.984;32.490;2023-04-30T01:06:22;6.35;;;3.22;;
35074;SDS011;21260;34.984;32.490;2023-04-30T01:08:51;4.90;;;3.00;;
35074;SDS011;21260;34.984;32.490;2023-04-30T01:11:27;5.57;;;3.33;;
35074;SDS011;21260;34.984;32.490;2023-04-30T01:17:43;6.35;;;3.08;;
35074;SDS011;21260;34.984;32.490;2023-04-30T01:20:23;8.97;;;3.17;;
35074;SDS011;21260;34.984;32.490;2023-04-30T01:26:13;9.10;;;3.40;;
35074;SDS011;21260;34.984;32.490;2023-04-30T01:28:47;8.40;;;3.03;;
35074;SDS011;21260;34.984;32.490;2023-04-30T01:31:17;6.50;;;3.30;;
35074;SDS011;21260;34.984;32.490;2023-04-30T01:33:44;7.70;;;3.53;;
35074;SDS011;21260;34.984;32.490;2023-04-30T01:36:22;6.93;;;3.20;;
35074;SDS011;21260;34.984;32.490;2023-04-30T01:42:26;6.70;;;2.97;;
35074;SDS011;21260;34.984;32.490;2023-04-30T01:51:40;5.28;;;2.97;;
35074;SDS011;21260;34.984;32.490;2023-04-30T01:57:07;6.95;;;2.80;;
35074;SDS011;21260;34.984;32.490;2023-04-30T01:59:54;7.93;;;3.22;;
35074;SDS011;21260;34.984;32.490;2023-04-30T02:02:22;6.68;;;2.95;;
35074;SDS011;21260;34.984;32.490;2023-04-30T02:04:48;7.07;;;3.10;;
35074;SDS011;21260;34.984;32.490;2023-04-30T02:07:16;7.00;;;3.10;;
35074;SDS011;21260;34.984;32.490;2023-04-30T02:10:02;5.88;;;3.30;;
35074;SDS011;21260;34.984;32.490;2023-04-30T02:12:30;8.02;;;3.53;;
35074;SDS011;21260;34.984;32.490;2023-04-30T02:14:56;6.43;;;3.20;;
35074;SDS011;21260;34.984;32.490;2023-04-30T02:17:22;5.75;;;3.20;;
35074;SDS011;21260;34.984;32.490;2023-04-30T02:19:48;7.05;;;3.42;;
35074;SDS011;21260;34.984;32.490;2023-04-30T02:22:15;8.55;;;3.30;;
35074;SDS011;21260;34.984;32.490;2023-04-30T02:24:41;6.90;;;3.40;;
35074;SDS011;21260;34.984;32.490;2023-04-30T02:27:07;7.45;;;3.20;;
35074;SDS011;21260;34.984;32.490;2023-04-30T02:29:33;6.85;;;3.53;;
35074;SDS011;21260;34.984;32.490;2023-04-30T02:31:59;8.82;;;3.38;;
35074;SDS011;21260;34.984;32.490;2023-04-30T02:34:26;7.10;;;2.95;;
35074;SDS011;21260;34.984;32.490;2023-04-30T02:36:52;5.33;;;3.20;;
35074;SDS011;21260;34.984;32.490;2023-04-30T02:39:18;7.75;;;3.65;;
35074;SDS011;21260;34.984;32.490;2023-04-30T02:41:44;5.60;;;3.20;;
35074;SDS011;21260;34.984;32.490;2023-04-30T02:44:11;7.18;;;3.25;;
35074;SDS011;21260;34.984;32.490;2023-04-30T02:46:38;8.55;;;3.20;;
35074;SDS011;21260;34.984;32.490;2023-04-30T02:49:04;6.70;;;3.15;;
35074;SDS011;21260;34.984;32.490;2023-04-30T02:51:30;7.10;;;3.58;;
35074;SDS011;21260;34.984;32.490;2023-04-30T02:53:57;7.88;;;3.15;;
35074;SDS011;21260;34.984;32.490;2023-04-30T02:56:23;5.82;;;3.20;;
35074;SDS011;21260;34.984;32.490;2023-04-30T02:58:49;7.10;;;3.33;;
35074;SDS011;21260;34.984;32.490;2023-04-30T03:01:15;8.73;;;3.50;;
35074;SDS011;21260;34.984;32.490;2023-04-30T03:03:41;9.23;;;3.55;;
35074;SDS011;21260;34.984;32.490;2023-04-30T03:06:08;7.55;;;3.33;;
35074;SDS011;21260;34.984;32.490;2023-04-30T03:08:34;6.95;;;3.20;;
35074;SDS011;21260;34.984;32.490;2023-04-30T03:11:00;7.07;;;3.20;;
35074;SDS011;21260;34.984;32.490;2023-04-30T03:13:26;6.88;;;3.22;;
35074;SDS011;21260;34.984;32.490;2023-04-30T03:15:59;8.55;;;3.35;;
35074;SDS011;21260;34.984;32.490;2023-04-30T03:18:31;7.60;;;3.40;;
35074;SDS011;21260;34.984;32.490;2023-04-30T03:20:57;5.67;;;3.00;;
35074;SDS011;21260;34.984;32.490;2023-04-30T03:23:25;6.78;;;3.17;;
35074;SDS011;21260;34.984;32.490;2023-04-30T03:25:53;6.53;;;3.00;;
35074;SDS011;21260;34.984;32.490;2023-04-30T03:28:19;7.25;;;3.10;;
35074;SDS011;21260;34.984;32.490;2023-04-30T03:30:45;7.07;;;3.03;;
35074;SDS011;21260;34.984;32.490;2023-04-30T03:33:11;7.43;;;3.20;;
35074;SDS011;21260;34.984;32.490;2023-04-30T03:35:38;7.55;;;3.30;;
35074;SDS011;21260;34.984;32.490;2023-04-30T03:38:04;9.68;;;3.65;;
35074;SDS011;21260;34.984;32.490;2023-04-30T03:40:30;6.17;;;3.10;;
35074;SDS011;21260;34.984;32.490;2023-04-30T03:42:56;7.45;;;3.40;;
35074;SDS011;21260;34.984;32.490;2023-04-30T03:45:23;7.63;;;3.45;;
35074;SDS011;21260;34.984;32.490;2023-04-30T03:47:49;7.40;;;3.20;;
35074;SDS011;21260;34.984;32.490;2023-04-30T03:50:17;8.50;;;3.35;;
35074;SDS011;21260;34.984;32.490;2023-04-30T03:52:44;7.28;;;3.38;;
35074;SDS011;21260;34.984;32.490;2023-04-30T03:55:10;6.97;;;3.20;;
35074;SDS011;21260;34.984;32.490;2023-04-30T03:57:40;8.30;;;3.40;;
35074;SDS011;21260;34.984;32.490;2023-04-30T04:00:07;6.65;;;3.30;;
35074;SDS011;21260;34.984;32.490;2023-04-30T04:02:35;7.93;;;3.45;;
35074;SDS011;21260;34.984;32.490;2023-04-30T04:05:02;8.90;;;3.30;;
35074;SDS011;21260;34.984;32.490;2023-04-30T04:07:29;7.53;;;3.10;;
35074;SDS011;21260;34.984;32.490;2023-04-30T04:09:55;6.43;;;3.40;;
35074;SDS011;21260;34.984;32.490;2023-04-30T04:12:21;8.65;;;3.17;;
35074;SDS011;21260;34.984;32.490;2023-04-30T04:14:47;9.55;;;3.58;;
35074;SDS011;21260;34.984;32.490;2023-04-30T04:17:14;8.90;;;3.40;;
35074;SDS011;21260;34.984;32.490;2023-04-30T04:19:40;7.20;;;3.40;;
35074;SDS011;21260;34.984;32.490;2023-04-30T04:22:06;7.18;;;3.10;;
35074;SDS011;21260;34.984;32.490;2023-04-30T04:24:32;8.77;;;3.50;;
35074;SDS011;21260;34.984;32.490;2023-04-30T04:26:59;7.60;;;3.85;;
35074;SDS011;21260;34.984;32.490;2023-04-30T04:29:27;8.45;;;3.35;;
35074;SDS011;21260;34.984;32.490;2023-04-30T04:31:53;7.10;;;3.70;;
35074;SDS011;21260;34.984;32.490;2023-04-30T04:34:20;6.50;;;3.38;;
35074;SDS011;21260;34.984;32.490;2023-04-30T04:36:46;8.75;;;3.80;;
35074;SDS011;21260;34.984;32.490;2023-04-30T04:39:13;7.05;;;3.35;;
35074;SDS011;21260;34.984;32.490;2023-04-30T04:41:40;8.00;;;3.40;;
35074;SDS011;21260;34.984;32.490;2023-04-30T04:44:06;5.53;;;3.17;;
35074;SDS011;21260;34.984;32.490;2023-04-30T04:46:33;8.07;;;3.40;;
35074;SDS011;21260;34.984;32.490;2023-04-30T04:49:02;7.53;;;3.20;;
35074;SDS011;21260;34.984;32.490;2023-04-30T04:51:29;8.60;;;3.00;;
35074;SDS011;21260;34.984;32.490;2023-04-30T04:53:57;8.10;;;3.40;;
35074;SDS011;21260;34.984;32.490;2023-04-30T04:56:23;7.57;;;3.38;;
35074;SDS011;21260;34.984;32.490;2023-04-30T04:58:50;7.50;;;3.20;;
35074;SDS011;21260;34.984;32.490;2023-04-30T05:01:17;7.38;;;3.42;;
35074;SDS011;21260;34.984;32.490;2023-04-30T05:03:43;6.78;;;3.22;;
35074;SDS011;21260;34.984;32.490;2023-04-30T05:06:09;9.30;;;3.50;;
35074;SDS011;21260;34.984;32.490;2023-04-30T05:08:35;6.70;;;3.00;;
35074;SDS011;21260;34.984;32.490;2023-04-30T05:11:02;7.93;;;3.25;;
35074;SDS011;21260;34.984;32.490;2023-04-30T05:13:28;7.10;;;3.17;;
35074;SDS011;21260;34.984;32.490;2023-04-30T05:15:55;8.75;;;3.08;;
35074;SDS011;21260;34.984;32.490;2023-04-30T05:18:21;7.85;;;3.10;;
35074;SDS011;21260;34.984;32.490;2023-04-30T05:20:47;8.10;;;3.20;;
35074;SDS011;21260;34.984;32.490;2023-04-30T05:23:14;5.10;;;3.08;;
35074;SDS011;21260;34.984;32.490;2023-04-30T05:25:40;6.95;;;3.00;;
35074;SDS011;21260;34.984;32.490;2023-04-30T05:28:07;8.75;;;3.20;;
35074;SDS011;21260;34.984;32.490;2023-04-30T05:30:33;7.40;;;3.20;;
35074;SDS011;21260;34.984;32.490;2023-04-30T05:33:00;7.63;;;3.33;;
35074;SDS011;21260;34.984;32.490;2023-04-30T05:35:26;6.95;;;3.10;;
35074;SDS011;21260;34.984;32.490;2023-04-30T05:37:53;6.00;;;3.10;;
35074;SDS011;21260;34.984;32.490;2023-04-30T05:40:19;4.93;;;2.83;;
35074;SDS011;21260;34.984;32.490;2023-04-30T05:42:45;7.82;;;3.20;;
35074;SDS011;21260;34.984;32.490;2023-04-30T05:45:11;9.68;;;3.47;;
35074;SDS011;21260;34.984;32.490;2023-04-30T05:47:40;8.98;;;3.15;;
35074;SDS011;21260;34.984;32.490;2023-04-30T05:50:06;5.88;;;3.00;;
35074;SDS011;21260;34.984;32.490;2023-04-30T05:52:34;6.90;;;2.90;;
35074;SDS011;21260;34.984;32.490;2023-04-30T05:55:00;6.40;;;2.90;;
35074;SDS011;21260;34.984;32.490;2023-04-30T05:57:26;4.78;;;2.90;;
35074;SDS011;21260;34.984;32.490;2023-04-30T05:59:53;6.72;;;2.95;;
35074;SDS011;21260;34.984;32.490;2023-04-30T06:02:19;8.60;;;3.30;;
35074;SDS011;21260;34.984;32.490;2023-04-30T06:04:46;7.93;;;3.00;;
35074;SDS011;21260;34.984;32.490;2023-04-30T06:07:12;10.27;;;3.53;;
35074;SDS011;21260;34.984;32.490;2023-04-30T06:09:39;5.57;;;2.72;;
35074;SDS011;21260;34.984;32.490;2023-04-30T06:12:05;4.85;;;2.67;;
35074;SDS011;21260;34.984;32.490;2023-04-30T06:14:31;6.63;;;2.88;;
35074;SDS011;21260;34.984;32.490;2023-04-30T06:16:57;7.18;;;2.88;;
35074;SDS011;21260;34.984;32.490;2023-04-30T06:19:24;4.75;;;2.67;;
35074;SDS011;21260;34.984;32.490;2023-04-30T06:21:50;6.47;;;2.60;;
35074;SDS011;21260;34.984;32.490;2023-04-30T06:24:17;6.68;;;2.80;;
35074;SDS011;21260;34.984;32.490;2023-04-30T06:26:43;7.68;;;2.70;;
35074;SDS011;21260;34.984;32.490;2023-04-30T06:29:09;5.40;;;2.80;;
35074;SDS011;21260;34.984;32.490;2023-04-30T06:31:35;6.18;;;2.40;;
35074;SDS011;21260;34.984;32.490;2023-04-30T06:34:02;4.82;;;2.53;;
35074;SDS011;21260;34.984;32.490;2023-04-30T06:36:28;4.82;;;2.45;;
35074;SDS011;21260;34.984;32.490;2023-04-30T06:38:55;5.78;;;2.80;;
35074;SDS011;21260;34.984;32.490;2023-04-30T06:41:22;6.17;;;2.73;;
35074;SDS011;21260;34.984;32.490;2023-04-30T06:43:48;4.13;;;2.50;;
35074;SDS011;21260;34.984;32.490;2023-04-30T06:46:14;5.97;;;2.65;;
35074;SDS011;21260;34.984;32.490;2023-04-30T06:48:40;8.77;;;2.92;;
35074;SDS011;21260;34.984;32.490;2023-04-30T06:51:07;6.87;;;2.30;;
35074;SDS011;21260;34.984;32.490;2023-04-30T06:53:33;5.30;;;2.55;;
35074;SDS011;21260;34.984;32.490;2023-04-30T06:56:00;5.50;;;2.33;;
35074;SDS011;21260;34.984;32.490;2023-04-30T06:58:26;4.45;;;2.30;;
35074;SDS011;21260;34.984;32.490;2023-04-30T07:00:52;6.28;;;2.20;;
35074;SDS011;21260;34.984;32.490;2023-04-30T07:03:18;5.20;;;2.20;;
35074;SDS011;21260;34.984;32.490;2023-04-30T07:05:45;4.70;;;2.30;;
35074;SDS011;21260;34.984;32.490;2023-04-30T07:08:12;4.38;;;2.10;;
35074;SDS011;21260;34.984;32.490;2023-04-30T07:10:39;4.65;;;2.35;;
35074;SDS011;21260;34.984;32.490;2023-04-30T07:13:05;6.97;;;2.55;;
35074;SDS011;21260;34.984;32.490;2023-04-30T07:15:32;7.13;;;2.30;;
35074;SDS011;21260;34.984;32.490;2023-04-30T07:17:59;4.20;;;2.35;;
35074;SDS011;21260;34.984;32.490;2023-04-30T07:20:25;5.22;;;2.30;;
35074;SDS011;21260;34.984;32.490;2023-04-30T07:22:51;5.20;;;2.30;;
35074;SDS011;21260;34.984;32.490;2023-04-30T07:25:19;4.68;;;2.08;;
35074;SDS011;21260;34.984;32.490;2023-04-30T07:27:45;5.38;;;1.95;;
35074;SDS011;21260;34.984;32.490;2023-04-30T07:30:11;4.55;;;2.10;;
35074;SDS011;21260;34.984;32.490;2023-04-30T07:32:38;6.85;;;2.40;;
35074;SDS011;21260;34.984;32.490;2023-04-30T07:35:05;4.72;;;2.20;;
35074;SDS011;21260;34.984;32.490;2023-04-30T07:37:32;4.25;;;2.10;;
35074;SDS011;21260;34.984;32.490;2023-04-30T07:39:58;6.05;;;2.60;;
35074;SDS011;21260;34.984;32.490;2023-04-30T07:42:25;4.13;;;2.20;;
35074;SDS011;21260;34.984;32.490;2023-04-30T07:44:51;5.70;;;2.53;;
35074;SDS011;21260;34.984;32.490;2023-04-30T07:47:17;4.28;;;2.17;;
35074;SDS011;21260;34.984;32.490;2023-04-30T07:49:45;9.32;;;2.30;;
35074;SDS011;21260;34.984;32.490;2023-04-30T07:52:12;5.22;;;2.10;;
35074;SDS011;21260;34.984;32.490;2023-04-30T07:54:39;5.20;;;2.25;;
35074;SDS011;21260;34.984;32.490;2023-04-30T07:57:05;7.15;;;2.25;;
35074;SDS011;21260;34.984;32.490;2023-04-30T07:59:31;6.83;;;2.20;;
35074;SDS011;21260;34.984;32.490;2023-04-30T08:01:58;5.70;;;2.20;;
35074;SDS011;21260;34.984;32.490;2023-04-30T08:04:24;4.88;;;2.10;;
35074;SDS011;21260;34.984;32.490;2023-04-30T08:06:50;4.35;;;2.10;;
35074;SDS011;21260;34.984;32.490;2023-04-30T08:09:16;4.38;;;2.33;;
35074;SDS011;21260;34.984;32.490;2023-04-30T08:11:42;6.63;;;2.33;;
35074;SDS011;21260;34.984;32.490;2023-04-30T08:14:09;5.22;;;2.33;;
35074;SDS011;21260;34.984;32.490;2023-04-30T08:16:35;5.22;;;2.17;;
35074;SDS011;21260;34.984;32.490;2023-04-30T08:19:01;5.57;;;2.28;;
35074;SDS011;21260;34.984;32.490;2023-04-30T08:21:28;5.55;;;1.90;;
35074;SDS011;21260;34.984;32.490;2023-04-30T08:23:54;4.07;;;1.90;;
35074;SDS011;21260;34.984;32.490;2023-04-30T08:26:21;3.67;;;2.10;;
35074;SDS011;21260;34.984;32.490;2023-04-30T08:28:48;7.07;;;2.00;;
35074;SDS011;21260;34.984;32.490;2023-04-30T08:31:14;5.05;;;2.17;;
35074;SDS011;21260;34.984;32.490;2023-04-30T08:33:41;4.43;;;2.03;;
35074;SDS011;21260;34.984;32.490;2023-04-30T08:36:08;5.53;;;2.05;;
35074;SDS011;21260;34.984;32.490;2023-04-30T08:38:34;5.90;;;2.10;;
35074;SDS011;21260;34.984;32.490;2023-04-30T08:41:06;5.40;;;2.17;;
35074;SDS011;21260;34.984;32.490;2023-04-30T08:43:37;4.97;;;2.00;;
35074;SDS011;21260;34.984;32.490;2023-04-30T08:46:05;4.93;;;2.20;;
35074;SDS011;21260;34.984;32.490;2023-04-30T08:48:32;3.83;;;1.98;;
35074;SDS011;21260;34.984;32.490;2023-04-30T08:51:01;4.72;;;2.00;;
35074;SDS011;21260;34.984;32.490;2023-04-30T08:53:29;6.53;;;2.40;;
35074;SDS011;21260;34.984;32.490;2023-04-30T08:55:58;5.10;;;2.10;;
35074;SDS011;21260;34.984;32.490;2023-04-30T08:58:25;6.13;;;2.30;;
35074;SDS011;21260;34.984;32.490;2023-04-30T09:00:51;4.55;;;2.00;;
35074;SDS011;21260;34.984;32.490;2023-04-30T09:03:17;4.65;;;2.05;;
35074;SDS011;21260;34.984;32.490;2023-04-30T09:05:46;5.65;;;2.38;;
35074;SDS011;21260;34.984;32.490;2023-04-30T09:08:16;5.47;;;2.10;;
35074;SDS011;21260;34.984;32.490;2023-04-30T09:10:46;5.15;;;2.25;;
35074;SDS011;21260;34.984;32.490;2023-04-30T09:13:12;6.80;;;2.17;;
35074;SDS011;21260;34.984;32.490;2023-04-30T09:15:38;6.97;;;2.35;;
35074;SDS011;21260;34.984;32.490;2023-04-30T09:18:12;4.60;;;2.10;;
35074;SDS011;21260;34.984;32.490;2023-04-30T09:20:56;5.97;;;2.10;;
35074;SDS011;21260;34.984;32.490;2023-04-30T09:23:27;4.20;;;2.05;;
35074;SDS011;21260;34.984;32.490;2023-04-30T09:25:54;5.43;;;2.13;;
35074;SDS011;21260;34.984;32.490;2023-04-30T09:28:21;3.63;;;2.22;;
35074;SDS011;21260;34.984;32.490;2023-04-30T09:30:50;4.50;;;2.17;;
35074;SDS011;21260;34.984;32.490;2023-04-30T09:33:17;3.90;;;1.90;;
35074;SDS011;21260;34.984;32.490;2023-04-30T09:35:44;4.72;;;2.10;;
35074;SDS011;21260;34.984;32.490;2023-04-30T09:38:29;5.57;;;2.05;;
35074;SDS011;21260;34.984;32.490;2023-04-30T09:40:57;7.60;;;2.22;;
35074;SDS011;21260;34.984;32.490;2023-04-30T09:43:28;4.45;;;2.10;;
35074;SDS011;21260;34.984;32.490;2023-04-30T09:45:57;3.30;;;1.88;;
35074;SDS011;21260;34.984;32.490;2023-04-30T09:48:24;6.75;;;2.13;;
35074;SDS011;21260;34.984;32.490;2023-04-30T09:50:55;4.82;;;2.20;;
35074;SDS011;21260;34.984;32.490;2023-04-30T09:53:21;3.43;;;1.67;;
35074;SDS011;21260;34.984;32.490;2023-04-30T09:55:48;5.97;;;1.92;;
35074;SDS011;21260;34.984;32.490;2023-04-30T09:58:16;5.40;;;2.40;;
35074;SDS011;21260;34.984;32.490;2023-04-30T10:00:44;5.03;;;2.10;;
35074;SDS011;21260;34.984;32.490;2023-04-30T10:03:13;4.55;;;2.20;;
35074;SDS011;21260;34.984;32.490;2023-04-30T10:05:41;4.45;;;2.25;;
35074;SDS011;21260;34.984;32.490;2023-04-30T10:11:09;4.80;;;2.20;;
35074;SDS011;21260;34.984;32.490;2023-04-30T10:13:59;3.80;;;1.95;;
35074;SDS011;21260;34.984;32.490;2023-04-30T10:19:33;4.85;;;2.10;;
35074;SDS011;21260;34.984;32.490;2023-04-30T10:22:06;4.15;;;2.00;;
35074;SDS011;21260;34.984;32.490;2023-04-30T10:24:33;4.90;;;1.90;;
35074;SDS011;21260;34.984;32.490;2023-04-30T10:27:00;4.78;;;2.00;;
35074;SDS011;21260;34.984;32.490;2023-04-30T10:29:27;5.65;;;2.35;;
35074;SDS011;21260;34.984;32.490;2023-04-30T10:31:53;7.20;;;2.30;;
35074;SDS011;21260;34.984;32.490;2023-04-30T10:40:26;4.93;;;2.20;;
35074;SDS011;21260;34.984;32.490;2023-04-30T10:42:53;5.63;;;1.97;;
35074;SDS011;21260;34.984;32.490;2023-04-30T10:45:35;4.07;;;2.20;;
35074;SDS011;21260;34.984;32.490;2023-04-30T10:48:05;4.45;;;2.28;;
35074;SDS011;21260;34.984;32.490;2023-04-30T10:50:32;6.00;;;2.28;;
35074;SDS011;21260;34.984;32.490;2023-04-30T10:53:13;5.25;;;2.40;;
35074;SDS011;21260;34.984;32.490;2023-04-30T10:55:51;6.82;;;2.22;;
35074;SDS011;21260;34.984;32.490;2023-04-30T10:58:22;4.55;;;2.33;;
35074;SDS011;21260;34.984;32.490;2023-04-30T11:03:35;5.43;;;2.38;;
35074;SDS011;21260;34.984;32.490;2023-04-30T11:06:07;5.72;;;2.10;;
35074;SDS011;21260;34.984;32.490;2023-04-30T11:08:41;5.30;;;2.10;;
35074;SDS011;21260;34.984;32.490;2023-04-30T11:11:21;7.43;;;2.40;;
35074;SDS011;21260;34.984;32.490;2023-04-30T11:13:57;6.03;;;2.28;;
35074;SDS011;21260;34.984;32.490;2023-04-30T11:16:29;6.00;;;2.70;;
35074;SDS011;21260;34.984;32.490;2023-04-30T11:19:31;4.50;;;2.47;;
35074;SDS011;21260;34.984;32.490;2023-04-30T11:27:25;6.20;;;2.43;;
35074;SDS011;21260;34.984;32.490;2023-04-30T11:29:54;6.97;;;2.33;;
35074;SDS011;21260;34.984;32.490;2023-04-30T11:32:23;6.10;;;2.20;;
35074;SDS011;21260;34.984;32.490;2023-04-30T11:34:56;4.90;;;2.40;;
35074;SDS011;21260;34.984;32.490;2023-04-30T11:37:30;5.50;;;2.40;;
35074;SDS011;21260;34.984;32.490;2023-04-30T11:40:01;5.30;;;2.60;;
35074;SDS011;21260;34.984;32.490;2023-04-30T11:42:29;4.10;;;2.40;;
35074;SDS011;21260;34.984;32.490;2023-04-30T11:47:42;6.13;;;2.45;;
35074;SDS011;21260;34.984;32.490;2023-04-30T11:50:12;7.35;;;2.60;;
35074;SDS011;21260;34.984;32.490;2023-04-30T11:52:42;5.53;;;2.47;;
35074;SDS011;21260;34.984;32.490;2023-04-30T11:55:15;5.03;;;2.50;;
35074;SDS011;21260;34.984;32.490;2023-04-30T11:57:45;4.38;;;2.45;;
35074;SDS011;21260;34.984;32.490;2023-04-30T12:00:35;5.53;;;2.58;;
35074;SDS011;21260;34.984;32.490;2023-04-30T12:03:02;5.05;;;2.45;;
35074;SDS011;21260;34.984;32.490;2023-04-30T12:05:28;6.97;;;2.40;;
35074;SDS011;21260;34.984;32.490;2023-04-30T12:08:02;6.68;;;2.70;;
35074;SDS011;21260;34.984;32.490;2023-04-30T12:10:33;6.90;;;2.67;;
35074;SDS011;21260;34.984;32.490;2023-04-30T12:13:00;6.13;;;2.78;;
35074;SDS011;21260;34.984;32.490;2023-04-30T12:15:27;5.75;;;2.65;;
35074;SDS011;21260;34.984;32.490;2023-04-30T12:17:55;6.88;;;3.00;;
35074;SDS011;21260;34.984;32.490;2023-04-30T12:20:24;6.28;;;2.60;;
35074;SDS011;21260;34.984;32.490;2023-04-30T12:22:52;5.90;;;2.77;;
35074;SDS011;21260;34.984;32.490;2023-04-30T12:25:20;6.50;;;2.75;;
35074;SDS011;21260;34.984;32.490;2023-04-30T12:27:48;7.43;;;2.75;;
35074;SDS011;21260;34.984;32.490;2023-04-30T12:30:19;12.43;;;3.03;;
35074;SDS011;21260;34.984;32.490;2023-04-30T12:32:51;7.15;;;2.80;;
35074;SDS011;21260;34.984;32.490;2023-04-30T12:35:22;5.18;;;2.70;;
35074;SDS011;21260;34.984;32.490;2023-04-30T12:37:53;7.28;;;3.00;;
35074;SDS011;21260;34.984;32.490;2023-04-30T12:40:31;4.95;;;2.83;;
35074;SDS011;21260;34.984;32.490;2023-04-30T12:43:05;7.60;;;3.20;;
35074;SDS011;21260;34.984;32.490;2023-04-30T12:45:49;4.80;;;2.90;;
35074;SDS011;21260;34.984;32.490;2023-04-30T12:48:22;7.15;;;3.35;;
35074;SDS011;21260;34.984;32.490;2023-04-30T12:50:53;8.93;;;3.60;;
35074;SDS011;21260;34.984;32.490;2023-04-30T12:53:26;7.18;;;3.33;;
35074;SDS011;21260;34.984;32.490;2023-04-30T12:56:12;5.80;;;3.22;;
35074;SDS011;21260;34.984;32.490;2023-04-30T12:58:42;5.57;;;3.30;;
35074;SDS011;21260;34.984;32.490;2023-04-30T13:01:11;7.37;;;3.53;;
35074;SDS011;21260;34.984;32.490;2023-04-30T13:03:40;6.20;;;3.45;;
35074;SDS011;21260;34.984;32.490;2023-04-30T13:06:07;7.55;;;3.30;;
35074;SDS011;21260;34.984;32.490;2023-04-30T13:08:34;7.47;;;3.73;;
35074;SDS011;21260;34.984;32.490;2023-04-30T13:11:01;8.23;;;3.88;;
35074;SDS011;21260;34.984;32.490;2023-04-30T13:13:28;8.20;;;3.90;;
35074;SDS011;21260;34.984;32.490;2023-04-30T13:15:54;8.15;;;3.88;;
35074;SDS011;21260;34.984;32.490;2023-04-30T13:18:21;5.70;;;3.80;;
35074;SDS011;21260;34.984;32.490;2023-04-30T13:20:47;8.80;;;3.72;;
35074;SDS011;21260;34.984;32.490;2023-04-30T13:23:13;7.70;;;3.65;;
35074;SDS011;21260;34.984;32.490;2023-04-30T13:25:40;5.50;;;3.17;;
35074;SDS011;21260;34.984;32.490;2023-04-30T13:28:06;6.13;;;3.80;;
35074;SDS011;21260;34.984;32.490;2023-04-30T13:30:33;7.72;;;3.75;;
35074;SDS011;21260;34.984;32.490;2023-04-30T13:33:00;6.82;;;4.20;;
35074;SDS011;21260;34.984;32.490;2023-04-30T13:35:26;9.07;;;4.30;;
35074;SDS011;21260;34.984;32.490;2023-04-30T13:37:53;7.78;;;4.30;;
35074;SDS011;21260;34.984;32.490;2023-04-30T13:40:21;6.97;;;4.20;;
35074;SDS011;21260;34.984;32.490;2023-04-30T13:42:48;6.55;;;3.80;;
35074;SDS011;21260;34.984;32.490;2023-04-30T13:45:15;7.90;;;4.00;;
35074;SDS011;21260;34.984;32.490;2023-04-30T13:47:41;7.45;;;3.80;;
35074;SDS011;21260;34.984;32.490;2023-04-30T13:50:08;8.65;;;4.00;;
35074;SDS011;21260;34.984;32.490;2023-04-30T13:52:34;9.30;;;4.00;;
35074;SDS011;21260;34.984;32.490;2023-04-30T13:55:01;10.32;;;4.10;;
35074;SDS011;21260;34.984;32.490;2023-04-30T13:57:28;7.50;;;4.22;;
35074;SDS011;21260;34.984;32.490;2023-04-30T13:59:56;8.33;;;4.30;;
35074;SDS011;21260;34.984;32.490;2023-04-30T14:02:24;5.82;;;4.03;;
35074;SDS011;21260;34.984;32.490;2023-04-30T14:04:54;11.68;;;4.10;;
35074;SDS011;21260;34.984;32.490;2023-04-30T14:07:20;8.10;;;4.28;;
35074;SDS011;21260;34.984;32.490;2023-04-30T14:09:48;7.70;;;4.38;;
35074;SDS011;21260;34.984;32.490;2023-04-30T14:12:14;9.30;;;4.10;;
35074;SDS011;21260;34.984;32.490;2023-04-30T14:14:41;8.38;;;3.90;;
35074;SDS011;21260;34.984;32.490;2023-04-30T14:17:07;5.22;;;3.60;;
35074;SDS011;21260;34.984;32.490;2023-04-30T14:19:33;7.65;;;3.78;;
35074;SDS011;21260;34.984;32.490;2023-04-30T14:22:00;7.13;;;3.80;;
35074;SDS011;21260;34.984;32.490;2023-04-30T14:24:26;5.63;;;3.22;;
35074;SDS011;21260;34.984;32.490;2023-04-30T14:26:52;6.00;;;3.60;;
35074;SDS011;21260;34.984;32.490;2023-04-30T14:29:18;5.85;;;3.75;;
35074;SDS011;21260;34.984;32.490;2023-04-30T14:31:45;5.85;;;3.85;;
35074;SDS011;21260;34.984;32.490;2023-04-30T14:34:12;5.68;;;3.45;;
35074;SDS011;21260;34.984;32.490;2023-04-30T14:36:38;4.93;;;3.42;;
35074;SDS011;21260;34.984;32.490;2023-04-30T14:39:04;5.90;;;3.30;;
35074;SDS011;21260;34.984;32.490;2023-04-30T14:41:34;5.63;;;3.10;;
35074;SDS011;21260;34.984;32.490;2023-04-30T14:44:02;6.13;;;3.30;;
35074;SDS011;21260;34.984;32.490;2023-04-30T14:46:28;6.43;;;3.45;;
35074;SDS011;21260;34.984;32.490;2023-04-30T14:48:57;6.22;;;3.60;;
35074;SDS011;21260;34.984;32.490;2023-04-30T14:51:23;8.45;;;3.50;;
35074;SDS011;21260;34.984;32.490;2023-04-30T14:53:50;6.10;;;3.58;;
35074;SDS011;21260;34.984;32.490;2023-04-30T14:56:16;6.60;;;3.43;;
35074;SDS011;21260;34.984;32.490;2023-04-30T14:58:42;6.20;;;3.55;;
35074;SDS011;21260;34.984;32.490;2023-04-30T15:01:08;6.47;;;3.80;;
35074;SDS011;21260;34.984;32.490;2023-04-30T15:03:35;6.50;;;3.72;;
35074;SDS011;21260;34.984;32.490;2023-04-30T15:06:02;5.70;;;3.72;;
35074;SDS011;21260;34.984;32.490;2023-04-30T15:08:28;7.28;;;3.90;;
35074;SDS011;21260;34.984;32.490;2023-04-30T15:10:54;5.80;;;3.60;;
35074;SDS011;21260;34.984;32.490;2023-04-30T15:13:21;5.93;;;3.40;;
35074;SDS011;21260;34.984;32.490;2023-04-30T15:15:48;7.53;;;3.80;;
35074;SDS011;21260;34.984;32.490;2023-04-30T15:18:14;9.27;;;4.27;;
35074;SDS011;21260;34.984;32.490;2023-04-30T15:20:40;7.25;;;4.00;;